Time;durP1;ratioP1;P1;durP2;ratioP2;P2;SDS_P1;SDS_P2;PMS_P1;PMS_P2;Temp;Humidity;BMP_temperature;BMP_pressure;BME280_temperature;BME280_humidity;BME280_pressure;Samples;Min_cycle;Max_cycle;Signal;HPM_P1;HPM_P2
2022/11/30 00:01:25;;;;;;;266.80;34.72;;;5.00;99.90;;;;;;5100248;28;20130;-90
2022/11/30 00:03:56;;;;;;;134.20;28.42;;;5.00;99.90;;;;;;5102154;28;20059;-90
2022/11/30 00:06:22;;;;;;;180.95;33.80;;;5.00;99.90;;;;;;5100971;28;20131;-90
2022/11/30 00:08:51;;;;;;;342.90;43.63;;;5.00;99.90;;;;;;5100533;28;20034;-90
2022/11/30 00:11:19;;;;;;;121.78;30.08;;;5.00;99.90;;;;;;5102692;28;20027;-90
2022/11/30 00:13:45;;;;;;;126.65;32.17;;;5.00;99.90;;;;;;5087922;28;20043;-90
2022/11/30 00:16:11;;;;;;;154.93;36.70;;;5.00;99.90;;;;;;5091889;28;20024;-90
2022/11/30 00:18:37;;;;;;;144.93;36.35;;;5.00;99.90;;;;;;5103118;28;20049;-91
2022/11/30 00:21:07;;;;;;;122.05;33.63;;;5.00;99.90;;;;;;5094434;28;20467;-90
2022/11/30 00:23:34;;;;;;;132.15;36.53;;;5.00;99.90;;;;;;5104402;28;20466;-90
2022/11/30 00:26:15;;;;;;;97.30;30.30;;;5.00;99.90;;;;;;5096300;28;20070;-91
2022/11/30 00:28:42;;;;;;;107.73;29.50;;;5.00;99.90;;;;;;5107179;28;20030;-90
2022/11/30 00:31:11;;;;;;;97.88;27.73;;;5.00;99.90;;;;;;5099163;28;20024;-91
2022/11/30 00:33:38;;;;;;;91.90;29.00;;;5.00;99.90;;;;;;5090044;28;20024;-90
2022/11/30 00:36:10;;;;;;;98.72;29.33;;;5.00;99.90;;;;;;5104278;28;20463;-90
2022/11/30 00:38:36;;;;;;;83.13;27.40;;;5.00;99.90;;;;;;5092757;28;20078;-90
2022/11/30 00:41:02;;;;;;;132.25;31.73;;;5.00;99.90;;;;;;5091128;28;20028;-91
2022/11/30 00:43:28;;;;;;;113.47;27.95;;;5.00;99.90;;;;;;5092424;28;20013;-90
2022/11/30 00:45:54;;;;;;;116.30;30.23;;;5.00;99.90;;;;;;5126344;28;20032;-91
2022/11/30 00:48:20;;;;;;;107.65;28.58;;;5.00;99.90;;;;;;5095280;28;20048;-90
2022/11/30 00:51:12;;;;;;;123.13;30.08;;;5.00;99.90;;;;;;5111602;28;20090;-91
2022/11/30 00:53:39;;;;;;;98.95;26.95;;;4.90;99.90;;;;;;5086084;28;20035;-90
2022/11/30 00:56:06;;;;;;;130.15;28.45;;;4.90;99.90;;;;;;5098271;28;20054;-90
2022/11/30 00:58:31;;;;;;;162.80;29.33;;;5.00;99.90;;;;;;5084728;28;20091;-90
2022/11/30 01:00:57;;;;;;;157.02;29.17;;;4.90;99.90;;;;;;5093502;28;20075;-90
2022/11/30 01:03:23;;;;;;;101.88;28.42;;;5.00;99.90;;;;;;5086506;28;20119;-90
2022/11/30 01:05:49;;;;;;;94.60;27.17;;;4.90;99.90;;;;;;5093073;28;20024;-90
2022/11/30 01:08:14;;;;;;;96.93;27.20;;;5.00;99.90;;;;;;5104070;28;20747;-90
2022/11/30 01:10:42;;;;;;;96.38;25.13;;;5.00;99.90;;;;;;5089960;28;20071;-90
2022/11/30 01:13:10;;;;;;;69.53;24.83;;;4.90;99.90;;;;;;5091001;28;20048;-90
2022/11/30 01:15:38;;;;;;;80.57;26.90;;;5.00;99.90;;;;;;5085789;28;20039;-90
2022/11/30 01:18:04;;;;;;;83.07;25.83;;;5.00;99.90;;;;;;5106784;28;20463;-91
2022/11/30 01:20:30;;;;;;;74.78;25.35;;;5.00;99.90;;;;;;5092693;28;20033;-91
2022/11/30 01:22:56;;;;;;;69.03;23.70;;;4.90;99.90;;;;;;5108960;28;20486;-91
2022/11/30 01:25:22;;;;;;;74.18;25.45;;;5.00;99.90;;;;;;5094140;28;20016;-91
2022/11/30 01:27:48;;;;;;;71.57;23.98;;;5.00;99.90;;;;;;5094461;28;20047;-91
2022/11/30 01:30:14;;;;;;;70.00;23.67;;;5.00;99.90;;;;;;5102460;28;20123;-90
2022/11/30 01:32:40;;;;;;;67.88;21.00;;;5.00;99.90;;;;;;5099462;28;20435;-90
2022/11/30 01:35:06;;;;;;;65.03;21.67;;;5.00;99.90;;;;;;5107249;28;20107;-91
2022/11/30 01:37:50;;;;;;;57.92;21.00;;;5.00;99.90;;;;;;5075837;28;20029;-91
2022/11/30 01:40:16;;;;;;;52.65;20.50;;;5.00;99.90;;;;;;5095796;28;20076;-91
2022/11/30 01:42:46;;;;;;;51.42;18.88;;;4.90;99.90;;;;;;5099150;28;20029;-91
2022/11/30 01:45:13;;;;;;;62.53;20.23;;;5.00;99.90;;;;;;5108259;28;20187;-91
2022/11/30 01:47:45;;;;;;;54.50;19.35;;;4.90;99.90;;;;;;5090679;28;20020;-91
2022/11/30 01:50:20;;;;;;;52.85;21.25;;;5.00;99.90;;;;;;5102100;28;20028;-90
2022/11/30 01:52:51;;;;;;;48.33;18.35;;;5.00;99.90;;;;;;5091570;28;20028;-91
2022/11/30 01:55:29;;;;;;;50.42;18.52;;;4.90;99.90;;;;;;5097309;28;20028;-92
2022/11/30 01:57:59;;;;;;;51.72;21.15;;;5.00;99.90;;;;;;5096651;28;20026;-91
2022/11/30 02:00:24;;;;;;;46.35;19.58;;;4.90;99.90;;;;;;5104766;28;20079;-90
2022/11/30 02:03:14;;;;;;;51.25;20.73;;;4.90;99.90;;;;;;5097316;28;20060;-90
2022/11/30 02:05:40;;;;;;;47.58;19.38;;;4.90;99.90;;;;;;5103072;28;20035;-90
2022/11/30 02:08:07;;;;;;;51.58;21.10;;;4.90;99.90;;;;;;5098974;28;20463;-91
2022/11/30 02:10:40;;;;;;;51.45;21.35;;;4.90;99.90;;;;;;5105790;28;20039;-90
2022/11/30 02:13:40;;;;;;;52.83;21.17;;;4.80;99.90;;;;;;5096512;28;20035;-90
2022/11/30 02:16:44;;;;;;;54.20;20.88;;;4.80;99.90;;;;;;5097042;28;20038;-90
2022/11/30 02:19:12;;;;;;;45.58;19.67;;;4.70;99.90;;;;;;5034409;28;20040;-90
2022/11/30 02:22:13;;;;;;;49.15;21.42;;;4.70;99.90;;;;;;5012547;28;20025;-91
2022/11/30 02:24:49;;;;;;;53.83;21.42;;;4.70;99.90;;;;;;4966433;28;20041;-91
2022/11/30 02:27:43;;;;;;;52.47;22.00;;;4.70;99.90;;;;;;5093433;28;20039;-91
2022/11/30 02:30:17;;;;;;;54.20;23.13;;;4.70;99.90;;;;;;5094702;28;20021;-91
2022/11/30 02:33:00;;;;;;;53.72;21.92;;;4.70;99.90;;;;;;5108308;28;20030;-90
2022/11/30 02:35:31;;;;;;;56.17;20.35;;;4.70;99.90;;;;;;5077977;28;20394;-91
2022/11/30 02:37:59;;;;;;;62.13;22.63;;;4.70;99.90;;;;;;5087025;28;20109;-90
2022/11/30 02:40:25;;;;;;;53.70;21.92;;;4.70;99.90;;;;;;5099066;28;20062;-91
2022/11/30 02:42:53;;;;;;;49.33;21.15;;;4.60;99.90;;;;;;5098331;28;20122;-90
2022/11/30 02:45:27;;;;;;;56.53;21.02;;;4.60;99.90;;;;;;5089638;28;20661;-91
2022/11/30 02:48:14;;;;;;;55.22;20.00;;;4.60;99.90;;;;;;5115902;27;20034;-91
2022/11/30 02:50:56;;;;;;;48.50;20.13;;;4.60;99.90;;;;;;5100405;28;20032;-91
2022/11/30 02:53:22;;;;;;;51.40;20.48;;;4.60;99.90;;;;;;5100525;28;20035;-91
2022/11/30 02:55:48;;;;;;;58.35;21.80;;;4.60;99.90;;;;;;5083563;28;20035;-91
2022/11/30 02:58:15;;;;;;;52.33;20.48;;;4.60;99.90;;;;;;5098192;28;20055;-91
2022/11/30 03:00:41;;;;;;;44.22;20.23;;;4.60;99.90;;;;;;5106253;28;20031;-92
2022/11/30 03:03:07;;;;;;;46.63;19.30;;;4.60;99.90;;;;;;5079310;28;20030;-90
2022/11/30 03:05:33;;;;;;;43.17;19.05;;;4.60;99.90;;;;;;5106862;28;20042;-91
2022/11/30 03:07:58;;;;;;;50.95;20.50;;;4.50;99.90;;;;;;5083142;28;20035;-91
2022/11/30 03:10:24;;;;;;;45.13;18.67;;;4.60;99.90;;;;;;5087470;28;20113;-91
2022/11/30 03:12:50;;;;;;;36.65;17.38;;;4.60;99.90;;;;;;5090497;28;20035;-91
2022/11/30 03:15:16;;;;;;;31.90;14.65;;;4.60;99.90;;;;;;5100879;28;20031;-91
2022/11/30 03:17:41;;;;;;;32.20;14.98;;;4.60;99.90;;;;;;5088407;28;20112;-91
2022/11/30 03:20:08;;;;;;;28.70;13.98;;;4.60;99.90;;;;;;5100318;28;20052;-90
2022/11/30 03:22:34;;;;;;;27.83;14.98;;;4.60;99.90;;;;;;5103046;28;20038;-91
2022/11/30 03:25:00;;;;;;;34.67;15.98;;;4.50;99.90;;;;;;5094123;28;20021;-91
2022/11/30 03:27:25;;;;;;;40.03;19.38;;;4.50;99.90;;;;;;5102240;28;20023;-90
2022/11/30 03:29:51;;;;;;;33.55;17.05;;;4.50;99.90;;;;;;5085276;28;20040;-91
2022/11/30 03:32:17;;;;;;;35.17;17.02;;;4.50;99.90;;;;;;5101542;28;20023;-91
2022/11/30 03:34:43;;;;;;;32.90;17.33;;;4.50;99.90;;;;;;5091908;28;20024;-91
2022/11/30 03:37:09;;;;;;;30.67;15.80;;;4.60;99.90;;;;;;5090732;28;20054;-91
2022/11/30 03:39:34;;;;;;;30.60;15.32;;;4.60;99.90;;;;;;5091673;28;20031;-90
2022/11/30 03:42:00;;;;;;;35.85;15.60;;;4.60;99.90;;;;;;5095346;28;20055;-91
2022/11/30 03:44:26;;;;;;;36.55;16.33;;;4.60;99.90;;;;;;5102524;28;20363;-91
2022/11/30 03:46:51;;;;;;;30.63;16.05;;;4.60;99.90;;;;;;5089704;28;20376;-90
2022/11/30 03:49:17;;;;;;;33.20;15.38;;;4.60;99.90;;;;;;5101087;28;20031;-91
2022/11/30 03:51:43;;;;;;;30.20;14.25;;;4.70;99.90;;;;;;5090994;28;20035;-91
2022/11/30 03:54:08;;;;;;;30.52;14.55;;;4.70;99.90;;;;;;5101503;28;20038;-91
2022/11/30 03:56:34;;;;;;;45.83;18.17;;;4.60;99.90;;;;;;5088590;28;20479;-90
2022/11/30 03:59:00;;;;;;;68.82;30.38;;;4.70;99.90;;;;;;5092856;28;20078;-91
2022/11/30 04:01:26;;;;;;;58.20;26.85;;;4.70;99.90;;;;;;5091734;28;20023;-91
2022/11/30 04:03:53;;;;;;;46.08;21.15;;;4.70;99.90;;;;;;5088856;28;20093;-90
2022/11/30 04:06:20;;;;;;;52.92;21.05;;;4.60;99.90;;;;;;5102433;28;20020;-91
2022/11/30 04:08:45;;;;;;;66.45;24.15;;;4.60;99.90;;;;;;5095692;28;20020;-91
2022/11/30 04:11:12;;;;;;;55.17;22.20;;;4.60;99.90;;;;;;5101742;28;20073;-90
2022/11/30 04:13:39;;;;;;;64.18;25.98;;;4.60;99.90;;;;;;5092436;28;20025;-91
2022/11/30 04:16:05;;;;;;;68.35;25.00;;;4.60;99.90;;;;;;5091633;28;20023;-91
2022/11/30 04:18:33;;;;;;;66.47;26.17;;;4.60;99.90;;;;;;5074639;28;20024;-90
2022/11/30 04:20:59;;;;;;;84.72;26.25;;;4.60;99.90;;;;;;5103083;28;20031;-91
2022/11/30 04:23:29;;;;;;;66.22;26.85;;;4.60;99.90;;;;;;5077713;28;20116;-91
2022/11/30 04:25:56;;;;;;;74.63;28.00;;;4.60;99.90;;;;;;5096094;28;20019;-91
2022/11/30 04:28:21;;;;;;;84.65;30.52;;;4.50;99.90;;;;;;5098547;28;20476;-92
2022/11/30 04:30:47;;;;;;;84.15;29.98;;;4.50;99.90;;;;;;5102329;28;20028;-91
2022/11/30 04:33:14;;;;;;;84.78;32.28;;;4.50;99.90;;;;;;5089574;28;20024;-90
2022/11/30 04:35:44;;;;;;;94.35;31.42;;;4.50;99.90;;;;;;5093589;28;20052;-90
2022/11/30 04:38:10;;;;;;;99.32;32.50;;;4.50;99.90;;;;;;5090827;28;20489;-90
2022/11/30 04:40:42;;;;;;;92.97;31.92;;;4.40;99.90;;;;;;5081871;28;20425;-91
2022/11/30 04:43:09;;;;;;;91.65;31.10;;;4.40;99.90;;;;;;5096765;28;20378;-90
2022/11/30 04:45:35;;;;;;;105.32;33.38;;;4.40;99.90;;;;;;5086266;28;20391;-91
2022/11/30 04:48:04;;;;;;;108.07;34.22;;;4.50;99.90;;;;;;5094723;28;20020;-91
2022/11/30 04:50:30;;;;;;;107.90;32.75;;;4.40;99.90;;;;;;5098733;28;20727;-91
2022/11/30 04:52:56;;;;;;;92.65;30.48;;;4.40;99.90;;;;;;5098193;28;20122;-91
2022/11/30 04:55:21;;;;;;;96.72;30.08;;;4.50;99.90;;;;;;5104985;28;20035;-91
2022/11/30 04:57:47;;;;;;;115.40;33.10;;;4.50;99.90;;;;;;5096466;28;20472;-91
2022/11/30 05:00:15;;;;;;;105.53;32.67;;;4.40;99.90;;;;;;5087654;28;20403;-91
2022/11/30 05:02:41;;;;;;;98.05;31.95;;;4.40;99.90;;;;;;5085993;28;20030;-91
2022/11/30 05:05:07;;;;;;;109.15;31.65;;;4.40;99.90;;;;;;5094578;28;20050;-91
2022/11/30 05:07:32;;;;;;;101.60;30.13;;;4.50;99.90;;;;;;5104993;28;20040;-91
2022/11/30 05:09:58;;;;;;;111.70;31.10;;;4.40;99.90;;;;;;5092376;28;20019;-91
2022/11/30 05:12:24;;;;;;;100.75;29.70;;;4.40;99.90;;;;;;5099748;28;20028;-91
2022/11/30 05:14:49;;;;;;;122.15;33.10;;;4.40;99.90;;;;;;5092863;28;20492;-90
2022/11/30 05:17:15;;;;;;;119.70;32.00;;;4.40;99.90;;;;;;5094969;28;20019;-91
2022/11/30 05:19:41;;;;;;;107.43;31.75;;;4.40;99.90;;;;;;5096791;28;20114;-91
2022/11/30 05:22:07;;;;;;;115.03;32.78;;;4.40;99.90;;;;;;5105744;28;20106;-91
2022/11/30 05:24:32;;;;;;;95.82;31.27;;;4.40;99.90;;;;;;5108363;28;20024;-91
2022/11/30 05:26:58;;;;;;;81.57;29.10;;;4.40;99.90;;;;;;5096306;28;20106;-90
2022/11/30 05:29:24;;;;;;;89.25;31.00;;;4.40;99.90;;;;;;5103427;28;20035;-91
2022/11/30 05:31:53;;;;;;;105.30;33.83;;;4.40;99.90;;;;;;5098591;28;20025;-90
2022/11/30 05:34:18;;;;;;;91.28;31.60;;;4.40;99.90;;;;;;5095247;28;20028;-90
2022/11/30 05:36:44;;;;;;;100.10;31.48;;;4.40;99.90;;;;;;5090635;28;20080;-90
2022/11/30 05:39:38;;;;;;;103.28;33.30;;;4.30;99.90;;;;;;5105128;28;20035;-90
2022/11/30 05:42:04;;;;;;;107.20;34.40;;;4.30;99.90;;;;;;5098873;28;20372;-89
2022/11/30 05:44:30;;;;;;;116.25;36.42;;;4.30;99.90;;;;;;5088395;28;20031;-90
2022/11/30 05:46:56;;;;;;;105.63;33.88;;;4.30;99.90;;;;;;5085647;28;20028;-89
2022/11/30 05:49:21;;;;;;;103.85;34.15;;;4.30;99.90;;;;;;5105124;28;20015;-89
2022/11/30 05:51:47;;;;;;;111.70;36.13;;;4.30;99.90;;;;;;5101875;28;20031;-90
2022/11/30 05:54:13;;;;;;;104.80;33.10;;;4.20;99.90;;;;;;5087052;28;20031;-90
2022/11/30 05:56:38;;;;;;;100.10;32.45;;;4.20;99.90;;;;;;5104895;28;20096;-90
2022/11/30 05:59:04;;;;;;;104.82;34.33;;;4.30;99.90;;;;;;5078085;28;20127;-89
2022/11/30 06:01:30;;;;;;;107.75;33.42;;;4.20;99.90;;;;;;5105364;28;20504;-90
2022/11/30 06:03:55;;;;;;;108.68;36.53;;;4.20;99.90;;;;;;5085530;28;20378;-90
2022/11/30 06:06:21;;;;;;;116.85;36.00;;;4.20;99.90;;;;;;5100639;28;20043;-90
2022/11/30 06:08:48;;;;;;;99.88;33.38;;;4.20;99.90;;;;;;5081344;28;20068;-89
2022/11/30 06:11:15;;;;;;;109.68;35.13;;;4.20;99.90;;;;;;5086903;28;20047;-90
2022/11/30 06:13:41;;;;;;;98.65;33.78;;;4.20;99.90;;;;;;5095830;28;20036;-89
2022/11/30 06:16:07;;;;;;;99.43;33.75;;;4.20;99.90;;;;;;5093335;28;20031;-89
2022/11/30 06:18:34;;;;;;;91.93;32.83;;;4.20;99.90;;;;;;5077817;28;20233;-90
2022/11/30 06:21:01;;;;;;;102.72;36.92;;;4.20;99.90;;;;;;5094576;28;20028;-90
2022/11/30 06:23:27;;;;;;;102.30;35.80;;;4.20;99.90;;;;;;5079318;28;20028;-89
2022/11/30 06:25:53;;;;;;;99.38;33.28;;;4.20;99.90;;;;;;5098694;28;20023;-89
2022/11/30 06:28:19;;;;;;;107.45;35.08;;;4.10;99.90;;;;;;5089779;28;20055;-90
2022/11/30 06:30:44;;;;;;;95.03;33.03;;;4.10;99.90;;;;;;5096846;28;20024;-90
2022/11/30 06:33:10;;;;;;;97.18;33.63;;;4.10;99.90;;;;;;5093557;28;20024;-89
2022/11/30 06:35:36;;;;;;;91.03;31.75;;;4.10;99.90;;;;;;5095537;28;20032;-89
2022/11/30 06:38:01;;;;;;;88.40;30.08;;;4.10;99.90;;;;;;5111343;28;20024;-89
2022/11/30 06:40:27;;;;;;;89.20;33.20;;;4.10;99.90;;;;;;5078663;28;20707;-89
2022/11/30 06:42:53;;;;;;;90.95;33.03;;;4.10;99.90;;;;;;5098022;28;20081;-89
2022/11/30 06:45:19;;;;;;;85.90;31.13;;;4.00;99.90;;;;;;5101575;28;20433;-90
2022/11/30 06:47:45;;;;;;;100.22;33.60;;;4.00;99.90;;;;;;5096948;28;20024;-89
2022/11/30 06:50:12;;;;;;;90.95;32.10;;;4.00;99.90;;;;;;5092006;28;20074;-90
2022/11/30 06:52:38;;;;;;;89.63;31.40;;;4.00;99.90;;;;;;5101636;28;20028;-89
2022/11/30 06:55:04;;;;;;;84.13;30.75;;;4.00;99.90;;;;;;5110277;28;20371;-89
2022/11/30 06:57:30;;;;;;;73.13;29.58;;;4.00;99.90;;;;;;5081441;28;20036;-90
2022/11/30 06:59:56;;;;;;;78.65;28.65;;;4.00;99.90;;;;;;5084469;28;20032;-90
2022/11/30 07:02:22;;;;;;;83.80;28.35;;;4.00;99.90;;;;;;5081072;28;20024;-90
2022/11/30 07:04:48;;;;;;;68.97;27.38;;;4.00;99.90;;;;;;5097943;28;20029;-89
2022/11/30 07:07:14;;;;;;;65.80;26.42;;;4.00;99.90;;;;;;5106892;28;20431;-89
2022/11/30 07:09:40;;;;;;;84.63;28.55;;;4.00;99.90;;;;;;5092518;28;20028;-90
2022/11/30 07:12:07;;;;;;;81.03;27.17;;;4.00;99.90;;;;;;5100696;28;20020;-90
2022/11/30 07:14:32;;;;;;;74.72;28.15;;;4.00;99.90;;;;;;5086157;28;20767;-89
2022/11/30 07:17:00;;;;;;;83.88;27.80;;;3.90;99.90;;;;;;5092574;28;20028;-90
2022/11/30 07:19:26;;;;;;;80.15;28.75;;;4.00;99.90;;;;;;5099606;28;20107;-89
2022/11/30 07:21:51;;;;;;;78.75;28.65;;;4.00;99.90;;;;;;5090580;28;20463;-89
2022/11/30 07:27:02;;;;;;;91.28;31.80;;;4.00;99.90;;;;;;5094481;28;20019;-89
2022/11/30 07:29:28;;;;;;;116.68;41.03;;;4.10;99.90;;;;;;5101961;28;20060;-89
2022/11/30 07:31:54;;;;;;;112.20;39.58;;;4.10;99.90;;;;;;5094203;28;20020;-89
2022/11/30 07:34:20;;;;;;;88.03;33.85;;;4.20;99.90;;;;;;5102267;28;20035;-89
2022/11/30 07:36:46;;;;;;;77.60;28.35;;;4.30;99.90;;;;;;5098517;28;20066;-89
2022/11/30 07:39:13;;;;;;;76.68;28.35;;;4.30;99.90;;;;;;5101838;28;20037;-89
2022/11/30 07:41:40;;;;;;;75.70;28.52;;;4.40;99.90;;;;;;5091592;28;20035;-89
2022/11/30 07:44:07;;;;;;;72.57;24.75;;;4.40;99.90;;;;;;5094749;28;20012;-89
2022/11/30 07:46:37;;;;;;;68.50;26.92;;;4.40;99.90;;;;;;5092507;28;20024;-89
2022/11/30 07:49:04;;;;;;;67.65;27.08;;;4.50;99.90;;;;;;5080042;28;20038;-90
2022/11/30 07:51:30;;;;;;;77.00;27.38;;;4.60;99.90;;;;;;5092311;28;20089;-90
2022/11/30 07:53:57;;;;;;;68.18;28.63;;;4.60;99.90;;;;;;5095070;28;20102;-90
2022/11/30 07:56:24;;;;;;;70.75;28.75;;;4.60;99.90;;;;;;5091024;28;20076;-89
2022/11/30 07:58:52;;;;;;;66.35;27.42;;;4.70;99.90;;;;;;5078233;28;20049;-90
2022/11/30 08:01:23;;;;;;;66.22;26.27;;;4.70;99.90;;;;;;5099868;28;20699;-90
2022/11/30 08:03:50;;;;;;;62.67;27.10;;;4.80;99.90;;;;;;5096853;28;20040;-90
2022/11/30 08:06:20;;;;;;;60.47;25.15;;;4.80;99.90;;;;;;5096383;28;20024;-89
2022/11/30 08:08:47;;;;;;;53.40;24.08;;;4.80;99.90;;;;;;5085622;28;20036;-89
2022/11/30 08:11:16;;;;;;;57.78;24.70;;;4.90;99.90;;;;;;5088574;28;20169;-89
2022/11/30 08:13:43;;;;;;;55.78;24.05;;;4.80;99.90;;;;;;5093691;28;20119;-89
2022/11/30 08:16:26;;;;;;;54.13;24.50;;;4.70;99.90;;;;;;5090448;28;20028;-89
2022/11/30 08:18:54;;;;;;;50.40;22.73;;;4.80;99.90;;;;;;5106484;27;20040;-90
2022/11/30 08:21:20;;;;;;;56.08;23.27;;;4.80;99.90;;;;;;5080087;28;20028;-89
2022/11/30 08:23:50;;;;;;;150.95;75.20;;;4.80;99.90;;;;;;5096170;28;20025;-89
2022/11/30 08:26:22;;;;;;;63.60;28.38;;;4.80;99.90;;;;;;5097059;28;20467;-89
2022/11/30 08:28:49;;;;;;;55.15;23.00;;;4.90;99.90;;;;;;5085514;28;20095;-89
2022/11/30 08:31:26;;;;;;;60.50;24.85;;;5.00;99.90;;;;;;5087688;28;20016;-89
2022/11/30 08:33:57;;;;;;;50.72;21.73;;;5.00;99.90;;;;;;5099773;28;20034;-89
2022/11/30 08:36:24;;;;;;;60.30;22.63;;;5.10;99.90;;;;;;5104887;28;20106;-89
2022/11/30 08:38:49;;;;;;;56.58;22.55;;;5.10;99.90;;;;;;5089286;28;20025;-89
2022/11/30 08:41:18;;;;;;;52.65;21.40;;;5.10;99.90;;;;;;5093144;28;20034;-90
2022/11/30 08:43:44;;;;;;;59.83;22.08;;;5.20;99.90;;;;;;5084232;28;20032;-89
2022/11/30 08:46:12;;;;;;;53.80;22.55;;;5.20;99.90;;;;;;5092782;28;20019;-88
2022/11/30 08:48:38;;;;;;;41.72;18.88;;;5.30;99.90;;;;;;5078464;28;20023;-90
2022/11/30 08:51:06;;;;;;;42.47;18.92;;;5.30;99.90;;;;;;5102289;28;20048;-90
2022/11/30 08:53:32;;;;;;;39.63;19.50;;;5.40;99.90;;;;;;5101870;28;20509;-89
2022/11/30 08:56:00;;;;;;;44.40;18.30;;;5.30;99.90;;;;;;5092491;28;20028;-89
2022/11/30 08:58:30;;;;;;;38.60;17.55;;;5.40;99.90;;;;;;5104023;28;20070;-89
2022/11/30 09:01:12;;;;;;;40.67;18.23;;;5.50;99.90;;;;;;5089895;28;20042;-89
2022/11/30 09:03:38;;;;;;;42.85;18.15;;;5.50;99.90;;;;;;5103344;28;20087;-90
2022/11/30 09:06:12;;;;;;;42.50;18.40;;;5.60;99.90;;;;;;5098444;28;20027;-90
2022/11/30 09:08:39;;;;;;;49.05;20.52;;;5.60;99.90;;;;;;5081055;28;20484;-89
2022/11/30 09:11:20;;;;;;;48.38;19.80;;;5.60;99.90;;;;;;5107184;28;20031;-90
2022/11/30 09:13:47;;;;;;;45.80;21.10;;;5.50;99.90;;;;;;5098105;28;20040;-89
2022/11/30 09:16:14;;;;;;;42.30;18.00;;;5.40;99.90;;;;;;5092811;28;20040;-89
2022/11/30 09:18:40;;;;;;;38.53;18.70;;;5.30;99.90;;;;;;5097176;28;20030;-90
2022/11/30 09:21:09;;;;;;;40.35;19.35;;;5.20;99.90;;;;;;5095258;28;20056;-90
2022/11/30 09:23:35;;;;;;;40.33;18.08;;;5.20;99.90;;;;;;5098983;28;20028;-89
2022/11/30 09:26:03;;;;;;;40.40;20.13;;;5.20;99.90;;;;;;5101010;28;20020;-89
2022/11/30 09:28:29;;;;;;;41.63;19.38;;;5.10;99.90;;;;;;5089829;28;20120;-89
2022/11/30 09:31:03;;;;;;;37.22;17.52;;;5.10;99.90;;;;;;5098234;28;20063;-89
2022/11/30 09:33:30;;;;;;;37.38;18.75;;;5.20;99.90;;;;;;5088411;28;20117;-89
2022/11/30 09:36:01;;;;;;;35.35;17.50;;;5.20;99.90;;;;;;5102008;28;20031;-90
2022/11/30 09:38:27;;;;;;;39.95;17.85;;;5.20;99.90;;;;;;5089281;28;20024;-89
2022/11/30 09:40:55;;;;;;;46.13;18.33;;;5.20;99.90;;;;;;5101665;28;20027;-89
2022/11/30 09:43:39;;;;;;;43.28;19.80;;;5.20;99.90;;;;;;5097494;28;20031;-89
2022/11/30 09:46:07;;;;;;;46.35;19.45;;;5.30;99.90;;;;;;5081131;28;20696;-89
2022/11/30 09:48:53;;;;;;;44.47;20.50;;;5.40;99.90;;;;;;5096036;28;20482;-89
2022/11/30 09:51:26;;;;;;;41.97;21.13;;;5.30;99.90;;;;;;5088003;28;20480;-89
2022/11/30 09:53:57;;;;;;;38.83;18.98;;;5.40;99.90;;;;;;5096425;28;20066;-89
2022/11/30 09:56:30;;;;;;;38.65;19.05;;;5.50;99.90;;;;;;5093752;28;20038;-89
2022/11/30 09:59:10;;;;;;;32.80;16.50;;;5.60;99.90;;;;;;5084660;28;20490;-89
2022/11/30 10:01:36;;;;;;;34.83;17.40;;;5.80;99.90;;;;;;5105732;28;20039;-89
2022/11/30 10:04:02;;;;;;;33.53;17.33;;;5.90;99.90;;;;;;5083118;28;20016;-89
2022/11/30 10:07:04;;;;;;;38.20;17.60;;;5.80;99.90;;;;;;5104636;28;20020;-89
2022/11/30 10:09:42;;;;;;;34.42;17.88;;;5.90;99.90;;;;;;5058812;28;20470;-89
2022/11/30 10:12:26;;;;;;;39.40;18.08;;;5.90;99.90;;;;;;5081644;28;20047;-89
2022/11/30 10:15:10;;;;;;;39.22;20.40;;;5.90;99.90;;;;;;5096379;28;20040;-89
2022/11/30 10:17:48;;;;;;;38.25;18.27;;;6.00;99.90;;;;;;5086867;28;20122;-89
2022/11/30 10:20:33;;;;;;;36.20;16.00;;;6.20;99.90;;;;;;5088094;28;20387;-89
2022/11/30 10:23:46;;;;;;;32.45;17.58;;;6.30;99.90;;;;;;5095568;28;20020;-89
2022/11/30 10:26:19;;;;;;;46.05;20.35;;;6.40;99.90;;;;;;5031128;28;20068;-91
2022/11/30 10:28:53;;;;;;;37.95;20.15;;;6.30;99.90;;;;;;5016011;28;20030;-90
2022/11/30 10:31:29;;;;;;;40.28;20.88;;;6.40;99.90;;;;;;5045882;28;20741;-89
2022/11/30 10:34:01;;;;;;;36.55;16.73;;;6.40;99.90;;;;;;5102776;28;20028;-89
2022/11/30 10:36:35;;;;;;;35.13;17.52;;;6.30;99.90;;;;;;5089984;28;20099;-89
2022/11/30 10:39:09;;;;;;;32.92;15.27;;;6.50;99.90;;;;;;5093053;28;20076;-89
2022/11/30 10:41:49;;;;;;;31.55;15.68;;;6.70;99.90;;;;;;5095212;28;20868;-89
2022/11/30 10:44:26;;;;;;;26.38;14.45;;;6.80;99.90;;;;;;5117285;27;20024;-89
2022/11/30 10:47:01;;;;;;;26.45;13.77;;;6.80;99.90;;;;;;5090122;28;20052;-89
2022/11/30 10:49:28;;;;;;;47.10;20.70;;;7.00;99.90;;;;;;5121589;27;20039;-89
2022/11/30 10:52:00;;;;;;;34.22;18.70;;;6.90;99.90;;;;;;5090753;28;20073;-89
2022/11/30 10:54:28;;;;;;;41.05;20.17;;;6.80;99.90;;;;;;5110159;28;20050;-89
2022/11/30 10:56:55;;;;;;;31.30;16.58;;;6.80;99.90;;;;;;5089257;28;20024;-89
2022/11/30 10:59:46;;;;;;;31.48;16.55;;;6.70;99.90;;;;;;5092673;28;20081;-89
2022/11/30 11:02:36;;;;;;;35.42;16.55;;;6.70;99.90;;;;;;5080830;28;20128;-89
2022/11/30 11:05:15;;;;;;;39.80;20.50;;;6.60;99.90;;;;;;5100182;28;20024;-89
2022/11/30 11:07:46;;;;;;;34.65;17.13;;;6.70;99.90;;;;;;5088202;28;20024;-89
2022/11/30 11:10:17;;;;;;;32.17;16.95;;;6.80;99.90;;;;;;5099250;28;20067;-88
2022/11/30 11:12:51;;;;;;;36.60;17.98;;;6.70;99.90;;;;;;5088407;28;20574;-89
2022/11/30 11:15:27;;;;;;;31.95;17.00;;;6.60;99.90;;;;;;5101207;28;20108;-89
2022/11/30 11:18:24;;;;;;;34.67;17.40;;;6.60;99.90;;;;;;5098810;28;20118;-88
2022/11/30 11:21:05;;;;;;;31.00;16.48;;;6.50;99.90;;;;;;5110356;28;20035;-89
2022/11/30 11:23:40;;;;;;;33.80;17.05;;;6.40;99.90;;;;;;5083373;28;20123;-89
2022/11/30 11:26:15;;;;;;;30.70;15.40;;;6.60;99.90;;;;;;5085948;28;20016;-89
2022/11/30 11:28:44;;;;;;;31.67;16.00;;;6.90;99.90;;;;;;5088923;28;20028;-89
2022/11/30 11:31:38;;;;;;;31.55;16.67;;;6.70;99.90;;;;;;5096403;28;20045;-89
2022/11/30 11:34:05;;;;;;;39.70;20.10;;;6.70;99.90;;;;;;5093575;28;20106;-89
2022/11/30 11:36:33;;;;;;;31.95;15.48;;;6.70;99.90;;;;;;5089089;28;20032;-89
2022/11/30 11:38:59;;;;;;;32.33;16.25;;;6.60;99.90;;;;;;5101741;28;20020;-89
2022/11/30 11:41:30;;;;;;;31.30;15.13;;;6.50;99.90;;;;;;5089719;28;20363;-88
2022/11/30 11:44:10;;;;;;;31.05;14.35;;;6.60;99.90;;;;;;5094109;28;20026;-88
2022/11/30 11:47:04;;;;;;;28.50;14.02;;;6.50;99.90;;;;;;5101361;28;20023;-89
2022/11/30 11:49:34;;;;;;;30.17;14.32;;;6.50;99.90;;;;;;5087991;28;20024;-88
2022/11/30 11:52:02;;;;;;;30.95;13.90;;;6.40;99.90;;;;;;5093011;28;20528;-89
2022/11/30 11:54:55;;;;;;;30.00;13.95;;;6.50;99.90;;;;;;5106291;28;20016;-89
2022/11/30 11:57:33;;;;;;;30.38;15.73;;;6.50;99.90;;;;;;5093688;28;20401;-89
2022/11/30 12:00:13;;;;;;;35.00;15.73;;;6.60;99.90;;;;;;5073520;28;20479;-88
2022/11/30 12:02:58;;;;;;;;;;;6.50;99.90;;;;;;5098066;28;20480;-89
2022/11/30 12:05:32;;;;;;;31.35;14.18;;;6.50;99.90;;;;;;5105678;28;19930;-89
2022/11/30 12:08:21;;;;;;;40.97;17.08;;;6.30;99.90;;;;;;5083086;28;20028;-89
2022/11/30 12:11:15;;;;;;;36.40;17.35;;;6.20;99.90;;;;;;5105774;28;20036;-89
2022/11/30 12:13:42;;;;;;;28.35;14.18;;;6.20;99.90;;;;;;5088689;28;20472;-89
2022/11/30 12:16:13;;;;;;;29.05;14.77;;;6.10;99.90;;;;;;5092399;28;20134;-89
2022/11/30 12:18:47;;;;;;;35.10;16.10;;;6.20;99.90;;;;;;5096466;28;20480;-89
2022/11/30 12:21:20;;;;;;;38.08;15.23;;;6.20;99.90;;;;;;5107311;28;20290;-89
2022/11/30 12:24:13;;;;;;;36.67;18.10;;;6.30;99.90;;;;;;5098636;28;20471;-88
2022/11/30 12:27:28;;;;;;;41.13;17.75;;;6.30;99.90;;;;;;5096326;28;20020;-88
2022/11/30 12:30:14;;;;;;;37.72;17.08;;;6.30;99.90;;;;;;5062398;27;20467;-88
2022/11/30 12:33:05;;;;;;;54.72;21.35;;;6.30;99.90;;;;;;5105574;28;20046;-88
2022/11/30 12:35:57;;;;;;;46.67;20.95;;;6.30;99.90;;;;;;5093522;28;20036;-88
2022/11/30 12:38:41;;;;;;;;;;;6.30;99.90;;;;;;5096048;28;20034;-89
2022/11/30 12:41:19;;;;;;;43.13;18.73;;;6.30;99.90;;;;;;5078497;28;20052;-89
2022/11/30 12:44:11;;;;;;;44.85;18.60;;;6.20;99.90;;;;;;5101554;28;20025;-88
2022/11/30 12:47:07;;;;;;;49.40;19.55;;;6.10;99.90;;;;;;5083820;28;20032;-88
2022/11/30 12:49:48;;;;;;;51.17;20.33;;;6.20;99.90;;;;;;5089739;28;20126;-88
2022/11/30 12:52:39;;;;;;;54.87;21.47;;;6.20;99.90;;;;;;5079217;28;20025;-89
2022/11/30 12:55:52;;;;;;;45.78;19.65;;;6.20;99.90;;;;;;5087203;28;20031;-90
2022/11/30 12:58:27;;;;;;;52.15;21.08;;;6.30;99.90;;;;;;5001019;28;20575;-90